sensor_id;sensor_type;location;lat;lon;timestamp;pressure;altitude;pressure_sealevel;temperature;humidity
48846;BME280;34665;51.886;5.436;2022-10-31T00:02:04;101883.56;;;21.46;100.00
48846;BME280;34665;51.886;5.436;2022-10-31T00:04:30;101886.78;;;21.89;100.00
48846;BME280;34665;51.886;5.436;2022-10-31T00:06:55;101879.53;;;21.95;100.00
48846;BME280;34665;51.886;5.436;2022-10-31T00:09:21;101883.91;;;22.13;100.00
48846;BME280;34665;51.886;5.436;2022-10-31T00:11:46;101890.19;;;21.97;100.00
48846;BME280;34665;51.886;5.436;2022-10-31T00:14:12;101885.31;;;21.99;100.00
48846;BME280;34665;51.886;5.436;2022-10-31T00:16:37;101885.88;;;21.55;100.00
48846;BME280;34665;51.886;5.436;2022-10-31T00:19:05;101878.78;;;21.54;100.00
48846;BME280;34665;51.886;5.436;2022-10-31T00:21:31;101879.03;;;21.98;100.00
48846;BME280;34665;51.886;5.436;2022-10-31T00:23:58;101880.88;;;21.92;100.00
48846;BME280;34665;51.886;5.436;2022-10-31T00:26:26;101885.91;;;22.01;100.00
48846;BME280;34665;51.886;5.436;2022-10-31T00:28:51;101880.94;;;21.98;100.00
48846;BME280;34665;51.886;5.436;2022-10-31T00:31:18;101879.38;;;21.85;100.00
48846;BME280;34665;51.886;5.436;2022-10-31T00:33:44;101886.97;;;21.83;100.00
48846;BME280;34665;51.886;5.436;2022-10-31T00:36:15;101885.31;;;21.82;100.00
48846;BME280;34665;51.886;5.436;2022-10-31T00:38:42;101887.50;;;21.68;100.00
48846;BME280;34665;51.886;5.436;2022-10-31T00:41:09;101885.56;;;21.80;100.00
48846;BME280;34665;51.886;5.436;2022-10-31T00:43:34;101899.34;;;21.32;100.00
48846;BME280;34665;51.886;5.436;2022-10-31T00:46:00;101895.28;;;21.47;100.00
48846;BME280;34665;51.886;5.436;2022-10-31T00:48:25;101900.13;;;21.45;100.00
48846;BME280;34665;51.886;5.436;2022-10-31T00:50:52;101893.03;;;21.44;100.00
48846;BME280;34665;51.886;5.436;2022-10-31T00:53:17;101894.22;;;21.77;100.00
48846;BME280;34665;51.886;5.436;2022-10-31T00:55:43;101886.22;;;21.58;100.00
48846;BME280;34665;51.886;5.436;2022-10-31T00:58:09;101888.28;;;21.51;100.00
48846;BME280;34665;51.886;5.436;2022-10-31T01:00:35;101887.38;;;21.62;100.00
48846;BME280;34665;51.886;5.436;2022-10-31T01:03:01;101889.22;;;21.57;100.00
48846;BME280;34665;51.886;5.436;2022-10-31T01:05:27;101891.25;;;21.96;100.00
48846;BME280;34665;51.886;5.436;2022-10-31T01:07:53;101887.28;;;21.69;100.00
48846;BME280;34665;51.886;5.436;2022-10-31T01:10:18;101883.97;;;21.84;100.00
48846;BME280;34665;51.886;5.436;2022-10-31T01:12:46;101876.53;;;21.80;100.00
48846;BME280;34665;51.886;5.436;2022-10-31T01:15:15;101869.06;;;21.70;100.00
48846;BME280;34665;51.886;5.436;2022-10-31T01:17:41;101877.31;;;21.46;100.00
48846;BME280;34665;51.886;5.436;2022-10-31T01:20:10;101873.41;;;21.42;100.00
48846;BME280;34665;51.886;5.436;2022-10-31T01:22:37;101875.63;;;21.16;100.00
48846;BME280;34665;51.886;5.436;2022-10-31T01:25:04;101867.66;;;20.97;100.00
48846;BME280;34665;51.886;5.436;2022-10-31T01:27:31;101864.47;;;21.00;100.00
48846;BME280;34665;51.886;5.436;2022-10-31T01:29:57;101852.00;;;21.16;100.00
48846;BME280;34665;51.886;5.436;2022-10-31T01:32:23;101854.66;;;20.75;100.00
48846;BME280;34665;51.886;5.436;2022-10-31T01:34:50;101862.50;;;20.84;100.00
48846;BME280;34665;51.886;5.436;2022-10-31T01:37:16;101854.47;;;21.18;100.00
48846;BME280;34665;51.886;5.436;2022-10-31T01:39:41;101855.69;;;21.39;100.00
48846;BME280;34665;51.886;5.436;2022-10-31T01:42:11;101857.00;;;21.37;100.00
48846;BME280;34665;51.886;5.436;2022-10-31T01:47:15;101845.31;;;20.95;100.00
48846;BME280;34665;51.886;5.436;2022-10-31T01:49:48;101852.16;;;20.98;100.00
48846;BME280;34665;51.886;5.436;2022-10-31T01:52:30;101846.81;;;21.03;100.00
48846;BME280;34665;51.886;5.436;2022-10-31T01:57:23;101849.16;;;20.23;100.00
48846;BME280;34665;51.886;5.436;2022-10-31T01:59:53;101853.59;;;21.00;100.00
48846;BME280;34665;51.886;5.436;2022-10-31T02:02:20;101858.94;;;20.71;100.00
48846;BME280;34665;51.886;5.436;2022-10-31T02:04:47;101862.13;;;20.68;100.00
48846;BME280;34665;51.886;5.436;2022-10-31T02:07:21;101860.09;;;20.99;100.00
48846;BME280;34665;51.886;5.436;2022-10-31T02:09:50;101860.34;;;20.86;100.00
48846;BME280;34665;51.886;5.436;2022-10-31T02:12:17;101860.38;;;20.38;100.00
48846;BME280;34665;51.886;5.436;2022-10-31T02:14:43;101858.47;;;20.39;100.00
48846;BME280;34665;51.886;5.436;2022-10-31T02:17:10;101862.41;;;20.31;100.00
48846;BME280;34665;51.886;5.436;2022-10-31T02:19:46;101845.38;;;20.24;100.00
48846;BME280;34665;51.886;5.436;2022-10-31T02:22:39;101853.41;;;20.18;100.00
48846;BME280;34665;51.886;5.436;2022-10-31T02:31:27;101851.38;;;20.02;100.00
48846;BME280;34665;51.886;5.436;2022-10-31T02:36:55;101849.53;;;20.14;100.00
48846;BME280;34665;51.886;5.436;2022-10-31T02:39:47;101852.72;;;20.11;100.00
48846;BME280;34665;51.886;5.436;2022-10-31T02:42:33;101851.28;;;19.97;100.00
48846;BME280;34665;51.886;5.436;2022-10-31T02:45:25;101854.84;;;20.57;100.00
48846;BME280;34665;51.886;5.436;2022-10-31T02:47:55;101847.44;;;19.74;100.00
48846;BME280;34665;51.886;5.436;2022-10-31T02:50:32;101850.44;;;19.23;100.00
48846;BME280;34665;51.886;5.436;2022-10-31T02:53:02;101854.59;;;19.68;100.00
48846;BME280;34665;51.886;5.436;2022-10-31T02:58:04;101857.03;;;19.46;100.00
48846;BME280;34665;51.886;5.436;2022-10-31T03:00:37;101855.63;;;19.55;100.00
48846;BME280;34665;51.886;5.436;2022-10-31T03:03:19;101848.56;;;19.54;100.00
48846;BME280;34665;51.886;5.436;2022-10-31T03:06:00;101861.34;;;19.66;100.00
48846;BME280;34665;51.886;5.436;2022-10-31T03:08:49;101856.88;;;19.83;100.00
48846;BME280;34665;51.886;5.436;2022-10-31T03:11:17;101859.69;;;19.65;100.00
48846;BME280;34665;51.886;5.436;2022-10-31T03:13:51;101864.88;;;19.78;100.00
48846;BME280;34665;51.886;5.436;2022-10-31T03:19:02;101862.84;;;20.28;100.00
48846;BME280;34665;51.886;5.436;2022-10-31T03:21:30;101865.16;;;19.88;100.00
48846;BME280;34665;51.886;5.436;2022-10-31T03:24:00;101856.34;;;19.01;100.00
48846;BME280;34665;51.886;5.436;2022-10-31T03:26:27;101861.59;;;18.77;100.00
48846;BME280;34665;51.886;5.436;2022-10-31T03:29:03;101859.81;;;18.71;100.00
48846;BME280;34665;51.886;5.436;2022-10-31T03:31:35;101862.19;;;18.61;100.00
48846;BME280;34665;51.886;5.436;2022-10-31T03:34:06;101864.72;;;18.37;100.00
48846;BME280;34665;51.886;5.436;2022-10-31T03:36:34;101871.03;;;18.31;100.00
48846;BME280;34665;51.886;5.436;2022-10-31T03:39:04;101861.75;;;18.20;100.00
48846;BME280;34665;51.886;5.436;2022-10-31T03:41:35;101870.88;;;18.26;100.00
48846;BME280;34665;51.886;5.436;2022-10-31T03:44:08;101872.03;;;18.11;100.00
48846;BME280;34665;51.886;5.436;2022-10-31T03:46:38;101862.16;;;18.42;100.00
48846;BME280;34665;51.886;5.436;2022-10-31T03:49:04;101867.16;;;18.64;100.00
48846;BME280;34665;51.886;5.436;2022-10-31T03:51:44;101856.19;;;18.77;100.00
48846;BME280;34665;51.886;5.436;2022-10-31T03:54:20;101868.50;;;18.55;100.00
48846;BME280;34665;51.886;5.436;2022-10-31T03:57:16;101862.13;;;18.68;100.00
48846;BME280;34665;51.886;5.436;2022-10-31T03:59:45;101851.16;;;18.81;100.00
48846;BME280;34665;51.886;5.436;2022-10-31T04:02:16;101861.38;;;18.60;100.00
48846;BME280;34665;51.886;5.436;2022-10-31T04:04:44;101858.34;;;18.50;100.00
48846;BME280;34665;51.886;5.436;2022-10-31T04:07:12;101861.34;;;18.42;100.00
48846;BME280;34665;51.886;5.436;2022-10-31T04:09:41;101851.97;;;18.82;100.00
48846;BME280;34665;51.886;5.436;2022-10-31T04:12:08;101863.00;;;18.17;100.00
48846;BME280;34665;51.886;5.436;2022-10-31T04:15:00;101856.03;;;18.28;100.00
48846;BME280;34665;51.886;5.436;2022-10-31T04:17:30;101857.25;;;18.32;100.00
48846;BME280;34665;51.886;5.436;2022-10-31T04:19:59;101853.00;;;18.62;100.00
48846;BME280;34665;51.886;5.436;2022-10-31T04:22:25;101862.31;;;18.29;100.00
48846;BME280;34665;51.886;5.436;2022-10-31T04:24:51;101862.06;;;18.30;100.00
48846;BME280;34665;51.886;5.436;2022-10-31T04:27:17;101856.94;;;18.85;100.00
48846;BME280;34665;51.886;5.436;2022-10-31T04:29:42;101859.63;;;18.47;100.00
48846;BME280;34665;51.886;5.436;2022-10-31T04:32:08;101859.03;;;18.45;100.00
48846;BME280;34665;51.886;5.436;2022-10-31T04:34:34;101852.19;;;18.17;100.00
48846;BME280;34665;51.886;5.436;2022-10-31T04:37:00;101853.44;;;17.89;100.00
48846;BME280;34665;51.886;5.436;2022-10-31T04:39:26;101849.66;;;18.23;100.00
48846;BME280;34665;51.886;5.436;2022-10-31T04:42:26;101848.50;;;18.12;100.00
48846;BME280;34665;51.886;5.436;2022-10-31T04:44:57;101850.97;;;18.39;100.00
48846;BME280;34665;51.886;5.436;2022-10-31T04:47:23;101849.31;;;18.12;100.00
48846;BME280;34665;51.886;5.436;2022-10-31T04:49:49;101851.47;;;18.03;100.00
48846;BME280;34665;51.886;5.436;2022-10-31T04:52:15;101856.50;;;18.00;100.00
48846;BME280;34665;51.886;5.436;2022-10-31T04:54:41;101849.13;;;18.14;100.00
48846;BME280;34665;51.886;5.436;2022-10-31T04:57:40;101861.50;;;18.47;100.00
48846;BME280;34665;51.886;5.436;2022-10-31T05:00:08;101851.72;;;18.20;100.00
48846;BME280;34665;51.886;5.436;2022-10-31T05:02:42;101857.75;;;17.97;100.00
48846;BME280;34665;51.886;5.436;2022-10-31T05:05:08;101854.28;;;18.41;100.00
48846;BME280;34665;51.886;5.436;2022-10-31T05:07:38;101844.34;;;18.09;100.00
48846;BME280;34665;51.886;5.436;2022-10-31T05:10:04;101847.97;;;18.22;100.00
48846;BME280;34665;51.886;5.436;2022-10-31T05:12:31;101846.16;;;18.15;100.00
48846;BME280;34665;51.886;5.436;2022-10-31T05:15:05;101839.50;;;17.86;100.00
48846;BME280;34665;51.886;5.436;2022-10-31T05:17:50;101836.41;;;17.50;100.00
48846;BME280;34665;51.886;5.436;2022-10-31T05:20:36;101840.19;;;17.81;100.00
48846;BME280;34665;51.886;5.436;2022-10-31T05:23:07;101837.47;;;17.81;100.00
48846;BME280;34665;51.886;5.436;2022-10-31T05:25:33;101841.56;;;17.90;100.00
48846;BME280;34665;51.886;5.436;2022-10-31T05:28:02;101849.44;;;17.67;100.00
48846;BME280;34665;51.886;5.436;2022-10-31T05:30:30;101841.00;;;17.49;100.00
48846;BME280;34665;51.886;5.436;2022-10-31T05:32:57;101842.81;;;17.62;100.00
48846;BME280;34665;51.886;5.436;2022-10-31T05:35:55;101839.97;;;17.76;100.00
48846;BME280;34665;51.886;5.436;2022-10-31T05:38:50;101839.13;;;17.82;100.00
48846;BME280;34665;51.886;5.436;2022-10-31T05:41:28;101838.28;;;17.82;100.00
48846;BME280;34665;51.886;5.436;2022-10-31T05:44:03;101835.13;;;17.85;100.00
48846;BME280;34665;51.886;5.436;2022-10-31T05:46:31;101839.56;;;17.79;100.00
48846;BME280;34665;51.886;5.436;2022-10-31T05:49:20;101834.53;;;18.15;100.00
48846;BME280;34665;51.886;5.436;2022-10-31T05:52:05;101832.75;;;17.70;100.00
48846;BME280;34665;51.886;5.436;2022-10-31T05:54:40;101839.38;;;17.74;100.00
48846;BME280;34665;51.886;5.436;2022-10-31T05:57:08;101832.63;;;17.58;100.00
48846;BME280;34665;51.886;5.436;2022-10-31T05:59:33;101832.88;;;17.56;100.00
48846;BME280;34665;51.886;5.436;2022-10-31T06:02:00;101832.50;;;17.78;100.00
48846;BME280;34665;51.886;5.436;2022-10-31T06:04:54;101827.03;;;17.85;100.00
48846;BME280;34665;51.886;5.436;2022-10-31T06:07:21;101826.22;;;17.84;100.00
48846;BME280;34665;51.886;5.436;2022-10-31T06:09:46;101835.84;;;17.73;100.00
48846;BME280;34665;51.886;5.436;2022-10-31T06:12:12;101831.13;;;17.94;100.00
48846;BME280;34665;51.886;5.436;2022-10-31T06:14:57;101831.00;;;17.82;100.00
48846;BME280;34665;51.886;5.436;2022-10-31T06:17:23;101828.38;;;17.69;100.00
48846;BME280;34665;51.886;5.436;2022-10-31T06:20:09;101829.03;;;17.64;100.00
48846;BME280;34665;51.886;5.436;2022-10-31T06:22:44;101831.25;;;17.10;100.00
48846;BME280;34665;51.886;5.436;2022-10-31T06:25:09;101830.81;;;17.52;100.00
48846;BME280;34665;51.886;5.436;2022-10-31T06:27:37;101832.66;;;17.51;100.00
48846;BME280;34665;51.886;5.436;2022-10-31T06:30:09;101833.41;;;18.23;100.00
48846;BME280;34665;51.886;5.436;2022-10-31T06:32:37;101830.16;;;17.56;100.00
48846;BME280;34665;51.886;5.436;2022-10-31T06:35:04;101825.25;;;17.72;100.00
48846;BME280;34665;51.886;5.436;2022-10-31T06:37:32;101829.72;;;17.59;100.00
48846;BME280;34665;51.886;5.436;2022-10-31T06:40:06;101831.75;;;17.64;100.00
48846;BME280;34665;51.886;5.436;2022-10-31T06:42:56;101835.38;;;18.09;100.00
48846;BME280;34665;51.886;5.436;2022-10-31T06:45:23;101830.50;;;17.67;100.00
48846;BME280;34665;51.886;5.436;2022-10-31T06:48:18;101831.94;;;17.95;100.00
48846;BME280;34665;51.886;5.436;2022-10-31T06:51:09;101837.94;;;18.29;100.00
48846;BME280;34665;51.886;5.436;2022-10-31T06:53:36;101832.31;;;18.05;100.00
48846;BME280;34665;51.886;5.436;2022-10-31T06:56:04;101836.41;;;17.82;100.00
48846;BME280;34665;51.886;5.436;2022-10-31T06:58:35;101833.69;;;18.58;100.00
48846;BME280;34665;51.886;5.436;2022-10-31T07:01:03;101836.78;;;18.18;100.00
48846;BME280;34665;51.886;5.436;2022-10-31T07:03:29;101839.28;;;18.38;100.00
48846;BME280;34665;51.886;5.436;2022-10-31T07:05:55;101832.00;;;18.76;100.00
48846;BME280;34665;51.886;5.436;2022-10-31T07:08:22;101833.06;;;18.38;100.00
48846;BME280;34665;51.886;5.436;2022-10-31T07:10:54;101835.44;;;18.27;100.00
48846;BME280;34665;51.886;5.436;2022-10-31T07:13:22;101827.03;;;18.54;100.00
48846;BME280;34665;51.886;5.436;2022-10-31T07:16:01;101827.19;;;18.97;100.00
48846;BME280;34665;51.886;5.436;2022-10-31T07:18:27;101828.78;;;18.86;100.00
48846;BME280;34665;51.886;5.436;2022-10-31T07:20:53;101836.91;;;18.48;100.00
48846;BME280;34665;51.886;5.436;2022-10-31T07:23:19;101837.06;;;18.54;100.00
48846;BME280;34665;51.886;5.436;2022-10-31T07:25:57;101833.44;;;18.60;100.00
48846;BME280;34665;51.886;5.436;2022-10-31T07:28:29;101833.13;;;18.87;100.00
48846;BME280;34665;51.886;5.436;2022-10-31T07:30:56;101834.34;;;18.54;100.00
48846;BME280;34665;51.886;5.436;2022-10-31T07:33:23;101836.13;;;18.41;100.00
48846;BME280;34665;51.886;5.436;2022-10-31T07:36:14;101837.44;;;18.76;100.00
48846;BME280;34665;51.886;5.436;2022-10-31T07:38:43;101835.72;;;18.82;100.00
48846;BME280;34665;51.886;5.436;2022-10-31T07:41:09;101840.22;;;19.06;100.00
48846;BME280;34665;51.886;5.436;2022-10-31T07:43:39;101840.53;;;19.17;100.00
48846;BME280;34665;51.886;5.436;2022-10-31T07:46:14;101844.44;;;19.21;100.00
48846;BME280;34665;51.886;5.436;2022-10-31T07:48:59;101843.22;;;18.80;100.00
48846;BME280;34665;51.886;5.436;2022-10-31T07:51:43;101842.94;;;19.06;100.00
48846;BME280;34665;51.886;5.436;2022-10-31T07:54:27;101852.06;;;19.43;100.00
48846;BME280;34665;51.886;5.436;2022-10-31T07:56:53;101860.88;;;19.38;100.00
48846;BME280;34665;51.886;5.436;2022-10-31T07:59:18;101853.19;;;19.66;100.00
48846;BME280;34665;51.886;5.436;2022-10-31T08:01:43;101848.88;;;19.88;100.00
48846;BME280;34665;51.886;5.436;2022-10-31T08:04:27;101850.47;;;19.66;100.00
48846;BME280;34665;51.886;5.436;2022-10-31T08:07:12;101847.44;;;19.74;100.00
48846;BME280;34665;51.886;5.436;2022-10-31T08:09:42;101856.72;;;20.20;100.00
48846;BME280;34665;51.886;5.436;2022-10-31T08:12:17;101860.84;;;20.71;100.00
48846;BME280;34665;51.886;5.436;2022-10-31T08:14:43;101853.88;;;20.63;100.00
48846;BME280;34665;51.886;5.436;2022-10-31T08:17:10;101852.78;;;20.88;100.00
48846;BME280;34665;51.886;5.436;2022-10-31T08:19:44;101856.66;;;20.92;100.00
48846;BME280;34665;51.886;5.436;2022-10-31T08:22:12;101854.22;;;20.90;100.00
48846;BME280;34665;51.886;5.436;2022-10-31T08:24:38;101851.31;;;21.67;100.00
48846;BME280;34665;51.886;5.436;2022-10-31T08:27:03;101858.00;;;22.11;100.00
48846;BME280;34665;51.886;5.436;2022-10-31T08:29:28;101857.44;;;21.91;100.00
48846;BME280;34665;51.886;5.436;2022-10-31T08:31:57;101852.09;;;22.36;100.00
48846;BME280;34665;51.886;5.436;2022-10-31T08:34:41;101855.50;;;22.26;100.00
48846;BME280;34665;51.886;5.436;2022-10-31T08:37:25;101865.47;;;22.99;100.00
48846;BME280;34665;51.886;5.436;2022-10-31T08:39:53;101848.81;;;22.51;100.00
48846;BME280;34665;51.886;5.436;2022-10-31T08:42:20;101854.06;;;22.58;100.00
48846;BME280;34665;51.886;5.436;2022-10-31T08:44:46;101853.41;;;22.51;100.00
48846;BME280;34665;51.886;5.436;2022-10-31T08:47:12;101853.34;;;22.85;100.00
48846;BME280;34665;51.886;5.436;2022-10-31T08:49:38;101844.09;;;23.13;100.00
48846;BME280;34665;51.886;5.436;2022-10-31T08:52:04;101844.97;;;23.41;100.00
48846;BME280;34665;51.886;5.436;2022-10-31T08:54:34;101833.84;;;23.86;100.00
48846;BME280;34665;51.886;5.436;2022-10-31T08:57:25;101836.41;;;24.89;100.00
48846;BME280;34665;51.886;5.436;2022-10-31T08:59:52;101838.06;;;24.95;100.00
48846;BME280;34665;51.886;5.436;2022-10-31T09:02:41;101845.56;;;24.67;100.00
48846;BME280;34665;51.886;5.436;2022-10-31T09:05:07;101843.38;;;24.11;100.00
48846;BME280;34665;51.886;5.436;2022-10-31T09:07:33;101831.38;;;24.12;100.00
48846;BME280;34665;51.886;5.436;2022-10-31T09:09:58;101831.63;;;24.10;100.00
48846;BME280;34665;51.886;5.436;2022-10-31T09:12:25;101831.41;;;24.70;100.00
48846;BME280;34665;51.886;5.436;2022-10-31T09:15:24;101818.75;;;24.59;100.00
48846;BME280;34665;51.886;5.436;2022-10-31T09:17:55;101818.38;;;24.93;100.00
48846;BME280;34665;51.886;5.436;2022-10-31T09:20:32;101805.31;;;24.47;100.00
48846;BME280;34665;51.886;5.436;2022-10-31T09:23:00;101821.38;;;24.38;100.00
48846;BME280;34665;51.886;5.436;2022-10-31T09:25:27;101827.13;;;24.37;100.00
48846;BME280;34665;51.886;5.436;2022-10-31T09:28:17;101830.53;;;24.11;100.00
48846;BME280;34665;51.886;5.436;2022-10-31T09:30:49;101827.69;;;23.30;100.00
48846;BME280;34665;51.886;5.436;2022-10-31T09:33:24;101831.44;;;23.29;100.00
48846;BME280;34665;51.886;5.436;2022-10-31T09:36:10;101826.53;;;22.82;100.00
48846;BME280;34665;51.886;5.436;2022-10-31T09:38:39;101812.28;;;23.24;100.00
48846;BME280;34665;51.886;5.436;2022-10-31T09:44:06;101798.78;;;23.34;100.00
48846;BME280;34665;51.886;5.436;2022-10-31T09:49:53;101802.50;;;23.01;100.00
48846;BME280;34665;51.886;5.436;2022-10-31T09:52:27;101786.13;;;23.01;100.00
48846;BME280;34665;51.886;5.436;2022-10-31T09:55:02;101785.22;;;23.45;100.00
48846;BME280;34665;51.886;5.436;2022-10-31T09:57:34;101776.59;;;23.58;100.00
48846;BME280;34665;51.886;5.436;2022-10-31T10:00:04;101773.94;;;23.69;100.00
48846;BME280;34665;51.886;5.436;2022-10-31T10:05:38;101774.03;;;24.22;100.00
48846;BME280;34665;51.886;5.436;2022-10-31T10:08:20;101780.34;;;24.28;100.00
48846;BME280;34665;51.886;5.436;2022-10-31T10:24:50;101754.69;;;22.93;100.00
48846;BME280;34665;51.886;5.436;2022-10-31T10:30:17;101745.66;;;23.20;100.00
48846;BME280;34665;51.886;5.436;2022-10-31T10:32:47;101744.94;;;23.02;100.00
48846;BME280;34665;51.886;5.436;2022-10-31T10:35:35;101725.13;;;23.12;100.00
48846;BME280;34665;51.886;5.436;2022-10-31T10:40:29;101735.25;;;23.12;100.00
48846;BME280;34665;51.886;5.436;2022-10-31T10:45:49;101736.44;;;23.54;100.00
48846;BME280;34665;51.886;5.436;2022-10-31T10:48:41;101697.81;;;23.34;100.00
48846;BME280;34665;51.886;5.436;2022-10-31T10:51:20;101683.41;;;23.44;100.00
48846;BME280;34665;51.886;5.436;2022-10-31T10:54:01;101662.28;;;23.29;100.00
48846;BME280;34665;51.886;5.436;2022-10-31T10:56:50;101689.41;;;23.14;100.00
48846;BME280;34665;51.886;5.436;2022-10-31T10:59:19;101696.00;;;23.51;100.00
48846;BME280;34665;51.886;5.436;2022-10-31T11:01:48;101687.22;;;23.11;100.00
48846;BME280;34665;51.886;5.436;2022-10-31T11:04:35;101712.72;;;24.71;100.00
48846;BME280;34665;51.886;5.436;2022-10-31T11:07:07;101693.88;;;25.01;100.00
48846;BME280;34665;51.886;5.436;2022-10-31T11:09:35;101709.56;;;24.31;100.00
48846;BME280;34665;51.886;5.436;2022-10-31T11:12:09;101707.97;;;24.46;100.00
48846;BME280;34665;51.886;5.436;2022-10-31T11:14:44;101715.22;;;24.14;100.00
48846;BME280;34665;51.886;5.436;2022-10-31T11:17:20;101697.06;;;23.92;100.00
48846;BME280;34665;51.886;5.436;2022-10-31T11:19:45;101685.19;;;24.19;100.00
48846;BME280;34665;51.886;5.436;2022-10-31T11:22:17;101676.66;;;24.05;100.00
48846;BME280;34665;51.886;5.436;2022-10-31T11:24:43;101674.38;;;24.45;100.00
48846;BME280;34665;51.886;5.436;2022-10-31T11:27:20;101665.91;;;23.83;100.00
48846;BME280;34665;51.886;5.436;2022-10-31T11:29:45;101656.91;;;23.88;100.00
48846;BME280;34665;51.886;5.436;2022-10-31T11:32:42;101656.66;;;23.95;100.00
48846;BME280;34665;51.886;5.436;2022-10-31T11:35:14;101650.06;;;23.85;100.00
48846;BME280;34665;51.886;5.436;2022-10-31T11:37:44;101649.41;;;23.62;100.00
48846;BME280;34665;51.886;5.436;2022-10-31T11:40:22;101634.66;;;24.27;100.00
48846;BME280;34665;51.886;5.436;2022-10-31T11:42:49;101629.44;;;24.15;100.00
48846;BME280;34665;51.886;5.436;2022-10-31T11:45:19;101617.31;;;23.96;100.00
48846;BME280;34665;51.886;5.436;2022-10-31T11:47:54;101619.16;;;24.54;100.00
48846;BME280;34665;51.886;5.436;2022-10-31T11:52:58;101609.34;;;24.68;100.00
48846;BME280;34665;51.886;5.436;2022-10-31T11:57:55;101591.81;;;24.74;100.00
48846;BME280;34665;51.886;5.436;2022-10-31T12:00:24;101579.22;;;24.27;100.00
48846;BME280;34665;51.886;5.436;2022-10-31T12:02:50;101577.03;;;24.39;100.00
48846;BME280;34665;51.886;5.436;2022-10-31T12:05:23;101559.50;;;24.19;100.00
48846;BME280;34665;51.886;5.436;2022-10-31T12:07:53;101566.94;;;25.12;100.00
48846;BME280;34665;51.886;5.436;2022-10-31T12:10:21;101577.78;;;25.48;100.00
48846;BME280;34665;51.886;5.436;2022-10-31T12:13:13;101563.91;;;25.19;100.00
48846;BME280;34665;51.886;5.436;2022-10-31T12:15:52;101542.72;;;25.61;100.00
48846;BME280;34665;51.886;5.436;2022-10-31T12:18:36;101544.25;;;25.83;100.00
48846;BME280;34665;51.886;5.436;2022-10-31T12:59:21;101462.91;;;25.17;100.00
48846;BME280;34665;51.886;5.436;2022-10-31T13:04:55;101441.75;;;25.39;100.00
48846;BME280;34665;51.886;5.436;2022-10-31T13:07:41;101430.91;;;25.73;100.00
48846;BME280;34665;51.886;5.436;2022-10-31T13:10:19;101425.22;;;24.99;100.00
48846;BME280;34665;51.886;5.436;2022-10-31T13:12:49;101421.56;;;25.24;100.00
48846;BME280;34665;51.886;5.436;2022-10-31T13:15:20;101407.38;;;25.17;100.00
48846;BME280;34665;51.886;5.436;2022-10-31T13:17:51;101404.19;;;24.89;100.00
48846;BME280;34665;51.886;5.436;2022-10-31T13:20:23;101400.91;;;24.92;100.00
48846;BME280;34665;51.886;5.436;2022-10-31T13:22:54;101403.13;;;25.90;100.00
48846;BME280;34665;51.886;5.436;2022-10-31T13:25:24;101385.56;;;24.91;100.00
48846;BME280;34665;51.886;5.436;2022-10-31T13:27:56;101380.13;;;24.86;100.00
48846;BME280;34665;51.886;5.436;2022-10-31T13:30:25;101380.13;;;24.86;100.00
48846;BME280;34665;51.886;5.436;2022-10-31T13:33:03;101383.00;;;25.71;100.00
48846;BME280;34665;51.886;5.436;2022-10-31T13:35:43;101369.19;;;25.81;100.00
48846;BME280;34665;51.886;5.436;2022-10-31T13:38:20;101365.97;;;26.09;100.00
48846;BME280;34665;51.886;5.436;2022-10-31T13:41:06;101358.88;;;25.73;100.00
48846;BME280;34665;51.886;5.436;2022-10-31T13:44:32;101354.22;;;25.73;100.00
48846;BME280;34665;51.886;5.436;2022-10-31T13:46:40;101350.91;;;26.06;100.00
48846;BME280;34665;51.886;5.436;2022-10-31T13:49:39;101352.41;;;25.93;100.00
48846;BME280;34665;51.886;5.436;2022-10-31T13:57:13;101344.91;;;25.74;100.00
48846;BME280;34665;51.886;5.436;2022-10-31T13:59:47;101337.66;;;24.99;100.00
48846;BME280;34665;51.886;5.436;2022-10-31T14:02:16;101334.50;;;24.66;100.00
48846;BME280;34665;51.886;5.436;2022-10-31T14:04:51;101334.16;;;24.88;100.00
48846;BME280;34665;51.886;5.436;2022-10-31T14:07:20;101325.41;;;24.91;100.00
48846;BME280;34665;51.886;5.436;2022-10-31T14:09:57;101328.59;;;25.09;100.00
48846;BME280;34665;51.886;5.436;2022-10-31T14:15:05;101309.84;;;24.86;100.00
48846;BME280;34665;51.886;5.436;2022-10-31T14:17:46;101320.63;;;24.41;100.00
48846;BME280;34665;51.886;5.436;2022-10-31T14:22:39;101300.91;;;24.55;100.00
48846;BME280;34665;51.886;5.436;2022-10-31T14:25:31;101287.66;;;23.75;100.00
48846;BME280;34665;51.886;5.436;2022-10-31T14:27:59;101276.47;;;23.67;100.00
48846;BME280;34665;51.886;5.436;2022-10-31T14:30:27;101266.09;;;23.84;100.00
48846;BME280;34665;51.886;5.436;2022-10-31T14:33:02;101272.13;;;23.55;100.00
48846;BME280;34665;51.886;5.436;2022-10-31T14:35:51;101265.28;;;23.47;100.00
48846;BME280;34665;51.886;5.436;2022-10-31T14:38:29;101269.09;;;23.62;100.00
48846;BME280;34665;51.886;5.436;2022-10-31T14:41:15;101273.75;;;23.56;100.00
48846;BME280;34665;51.886;5.436;2022-10-31T14:44:35;101274.03;;;23.44;100.00
48846;BME280;34665;51.886;5.436;2022-10-31T14:47:05;101257.34;;;23.51;100.00
48846;BME280;34665;51.886;5.436;2022-10-31T14:52:12;101251.63;;;23.73;100.00
48846;BME280;34665;51.886;5.436;2022-10-31T14:54:42;101253.00;;;23.40;100.00
48846;BME280;34665;51.886;5.436;2022-10-31T14:57:29;101242.63;;;23.68;100.00
48846;BME280;34665;51.886;5.436;2022-10-31T15:00:00;101239.91;;;23.78;100.00